Time;durP1;ratioP1;P1;durP2;ratioP2;P2;SDS_P1;SDS_P2;PMS_P1;PMS_P2;Temp;Humidity;BMP_temperature;BMP_pressure;BME280_temperature;BME280_humidity;BME280_pressure;Samples;Min_cycle;Max_cycle;Signal;HPM_P1;HPM_P2
2021/10/11 00:00:44;;;;;;;80.05;44.03;;;;;;;8.24;67.31;102030.47;1780598;80;20903;-80
2021/10/11 00:03:11;;;;;;;77.45;44.00;;;;;;;8.22;67.31;102031.42;1780659;80;20880;-78
2021/10/11 00:05:39;;;;;;;74.87;42.25;;;;;;;8.19;67.35;102030.21;1780733;80;21155;-78
2021/10/11 00:08:06;;;;;;;73.85;40.10;;;;;;;8.18;67.48;102032.40;1780707;80;21374;-78
2021/10/11 00:10:35;;;;;;;65.05;38.15;;;;;;;8.18;67.52;102030.67;1780877;79;20907;-82
2021/10/11 00:13:01;;;;;;;64.35;37.33;;;;;;;8.19;67.67;102026.30;1780843;80;20965;-81
2021/10/11 00:15:28;;;;;;;61.95;37.42;;;;;;;8.23;67.76;102025.31;1780768;79;21493;-80
2021/10/11 00:17:57;;;;;;;64.67;36.28;;;;;;;8.25;67.65;102026.13;1780872;80;20895;-81
2021/10/11 00:20:24;;;;;;;53.65;33.85;;;;;;;8.26;67.55;102029.98;1781093;79;20876;-81
2021/10/11 00:22:51;;;;;;;61.20;36.45;;;;;;;8.27;67.38;102024.30;1780799;79;21373;-80
2021/10/11 00:25:19;;;;;;;65.95;38.42;;;;;;;8.25;67.15;102015.68;1780846;80;20935;-81
2021/10/11 00:27:46;;;;;;;65.95;37.90;;;;;;;8.22;66.96;102020.52;1780722;79;20848;-80
2021/10/11 00:30:13;;;;;;;61.95;36.58;;;;;;;8.17;66.85;102015.02;1780919;80;22080;-80
2021/10/11 00:32:41;;;;;;;67.00;38.90;;;;;;;8.13;66.87;102012.93;1780569;80;20923;-81
2021/10/11 00:35:08;;;;;;;69.20;39.03;;;;;;;8.09;67.00;102008.68;1780935;80;20994;-80
2021/10/11 00:37:35;;;;;;;68.72;39.00;;;;;;;8.05;67.24;102008.39;1780684;80;20979;-79
2021/10/11 00:40:03;;;;;;;73.52;43.87;;;;;;;8.02;67.56;102004.07;1781095;80;20888;-81
2021/10/11 00:45:27;;;;;;;69.42;42.48;;;;;;;8.05;67.92;102005.31;1871459;76;22628;-79
2021/10/11 00:47:54;;;;;;;69.05;37.48;;;;;;;8.01;67.87;102004.14;1827770;78;20858;-79
2021/10/11 00:50:20;;;;;;;62.05;36.38;;;;;;;8.00;67.83;101999.34;1827734;78;21454;-81
2021/10/11 00:52:47;;;;;;;65.10;38.00;;;;;;;7.99;67.83;101996.79;1827610;78;20868;-80
2021/10/11 00:55:14;;;;;;;60.10;36.05;;;;;;;7.97;67.74;102003.34;1827534;77;21444;-80
2021/10/11 00:57:41;;;;;;;59.00;33.60;;;;;;;7.94;67.67;101996.03;1827476;78;20912;-80
2021/10/11 01:00:09;;;;;;;63.40;34.18;;;;;;;7.92;67.64;101996.55;1827602;78;20888;-80
2021/10/11 01:02:36;;;;;;;62.83;37.23;;;;;;;7.89;67.82;102004.88;1827653;78;21347;-79
2021/10/11 01:05:03;;;;;;;61.75;35.83;;;;;;;7.87;68.04;101997.52;1827549;77;20947;-80
2021/10/11 01:07:30;;;;;;;65.67;37.73;;;;;;;7.88;68.15;101996.61;1827860;77;21420;-80
2021/10/11 01:09:57;;;;;;;67.42;38.55;;;;;;;7.91;68.09;101992.20;1827640;78;20911;-79
2021/10/11 01:12:23;;;;;;;61.02;35.52;;;;;;;7.91;68.11;101991.75;1827854;78;21357;-79
2021/10/11 01:14:50;;;;;;;66.10;36.55;;;;;;;7.92;67.93;101979.58;1827584;78;21119;-79
2021/10/11 01:17:17;;;;;;;43.25;26.68;;;;;;;7.87;67.86;101979.24;1827730;77;20939;-80
2021/10/11 01:19:52;;;;;;;18.17;12.50;;;;;;;7.82;67.74;101975.87;1827527;78;20994;-80
2021/10/11 01:22:19;;;;;;;36.05;20.50;;;;;;;7.77;66.56;101975.61;1827589;78;21480;-80
2021/10/11 01:24:47;;;;;;;45.23;26.35;;;;;;;7.75;66.01;101974.33;1827568;78;20836;-79
2021/10/11 01:27:15;;;;;;;27.40;13.13;;;;;;;7.76;65.39;101976.48;1827893;77;21768;-79
2021/10/11 01:29:42;;;;;;;15.08;11.70;;;;;;;7.74;64.02;101972.63;1827509;78;20907;-79
2021/10/11 01:32:09;;;;;;;16.57;10.00;;;;;;;7.77;63.27;101969.08;1827959;78;21453;-79
2021/10/11 01:34:36;;;;;;;18.98;12.03;;;;;;;7.81;62.67;101970.72;1827508;78;20873;-79
2021/10/11 01:37:03;;;;;;;14.50;10.50;;;;;;;7.83;61.87;101965.00;1827709;78;20853;-79
2021/10/11 01:39:30;;;;;;;15.25;10.13;;;;;;;7.87;61.59;101964.03;1827606;77;21541;-80
2021/10/11 01:41:59;;;;;;;21.15;10.80;;;;;;;7.91;61.18;101968.70;1827547;77;20856;-81
2021/10/11 01:44:26;;;;;;;25.82;11.35;;;;;;;7.92;60.84;101969.97;1830207;77;20899;-80
2021/10/11 01:46:53;;;;;;;14.28;9.80;;;;;;;7.94;60.70;101964.69;1833980;76;21449;-79
2021/10/11 01:49:20;;;;;;;17.23;9.88;;;;;;;7.94;60.50;101962.08;1833809;77;20994;-79
2021/10/11 01:51:46;;;;;;;17.52;10.00;;;;;;;7.94;60.33;101960.77;1834036;77;22094;-78
2021/10/11 01:54:14;;;;;;;18.90;11.38;;;;;;;7.94;60.25;101965.99;1833479;78;20951;-78
2021/10/11 01:56:40;;;;;;;16.85;10.35;;;;;;;7.94;60.16;101965.99;1833270;78;20915;-79
2021/10/11 01:59:07;;;;;;;15.40;10.70;;;;;;;7.93;59.95;101961.68;1833041;78;20829;-80
2021/10/11 02:01:34;;;;;;;14.83;10.82;;;;;;;7.92;59.93;101958.22;1833370;78;21365;-79
2021/10/11 02:04:02;;;;;;;16.65;10.10;;;;;;;7.93;59.74;101966.91;1832951;77;21915;-78
2021/10/11 02:06:29;;;;;;;20.95;11.10;;;;;;;7.92;59.60;101963.91;1832988;78;20908;-77
2021/10/11 02:08:56;;;;;;;15.13;10.05;;;;;;;7.93;59.57;101961.68;1833100;78;21389;-78
2021/10/11 02:11:23;;;;;;;18.07;10.32;;;;;;;7.92;59.54;101960.84;1832926;77;21029;-78
2021/10/11 02:13:50;;;;;;;19.60;12.25;;;;;;;7.92;59.54;101963.91;1832957;77;21461;-78
2021/10/11 02:16:17;;;;;;;16.62;11.95;;;;;;;7.88;59.85;101960.05;1832955;77;21077;-81
2021/10/11 02:18:44;;;;;;;19.07;12.23;;;;;;;7.87;60.37;101960.96;1832860;78;21377;-80
2021/10/11 02:21:12;;;;;;;15.63;11.40;;;;;;;7.84;60.38;101963.64;1832914;78;20962;-81
2021/10/11 02:23:39;;;;;;;15.85;10.82;;;;;;;7.80;60.63;101959.42;1833067;77;21488;-80
2021/10/11 02:26:08;;;;;;;27.35;15.58;;;;;;;7.77;60.47;101961.24;1833173;78;20915;-78
2021/10/11 02:28:35;;;;;;;26.45;14.47;;;;;;;7.74;61.10;101956.97;1833213;77;21138;-77
2021/10/11 02:31:02;;;;;;;35.83;21.87;;;;;;;7.71;61.33;101955.72;1833168;78;21372;-78
2021/10/11 02:33:30;;;;;;;18.10;11.80;;;;;;;7.69;61.74;101949.68;1832888;78;20966;-77
2021/10/11 02:35:57;;;;;;;22.93;14.93;;;;;;;7.67;61.96;101954.11;1833047;78;20868;-78
2021/10/11 02:38:24;;;;;;;33.40;19.27;;;;;;;7.65;61.96;101945.46;1832954;77;20928;-77
2021/10/11 02:40:50;;;;;;;23.12;11.43;;;;;;;7.63;62.48;101944.64;1833025;78;21849;-77
2021/10/11 02:43:17;;;;;;;33.00;16.65;;;;;;;7.63;62.35;101944.64;1832909;78;21441;-78
2021/10/11 02:45:44;;;;;;;22.13;13.38;;;;;;;7.61;62.45;101942.52;1832849;78;20911;-76
2021/10/11 02:48:11;;;;;;;29.30;15.25;;;;;;;7.59;61.62;101940.39;1832870;78;20912;-76
2021/10/11 02:50:37;;;;;;;25.37;15.85;;;;;;;7.59;62.20;101934.72;1833094;77;20895;-77
2021/10/11 02:53:04;;;;;;;38.42;19.48;;;;;;;7.56;62.66;101930.90;1832975;77;21513;-78
2021/10/11 02:55:31;;;;;;;32.63;21.37;;;;;;;7.52;62.65;101925.80;1833250;77;21423;-79
2021/10/11 02:57:59;;;;;;;31.73;20.57;;;;;;;7.45;62.61;101929.02;1832981;78;20903;-79
2021/10/11 03:00:26;;;;;;;37.65;22.98;;;;;;;7.38;62.81;101930.05;1832863;78;21425;-79
2021/10/11 03:02:53;;;;;;;32.93;21.40;;;;;;;7.30;63.00;101925.03;1832959;78;20908;-78
2021/10/11 03:05:20;;;;;;;33.45;19.80;;;;;;;7.22;63.17;101921.30;1833215;77;21463;-78
2021/10/11 03:07:46;;;;;;;33.88;19.98;;;;;;;7.15;63.40;101917.59;1832931;78;20816;-78
2021/10/11 03:10:13;;;;;;;32.08;19.55;;;;;;;7.06;63.70;101918.22;1832960;78;21451;-78
2021/10/11 03:12:41;;;;;;;34.65;20.00;;;;;;;7.00;64.02;101919.69;1833070;77;20923;-77
2021/10/11 03:15:09;;;;;;;27.35;19.40;;;;;;;6.94;64.34;101915.08;1833231;77;20963;-78
2021/10/11 03:17:37;;;;;;;35.08;20.43;;;;;;;6.88;64.69;101917.36;1832874;78;21135;-78
2021/10/11 03:20:06;;;;;;;35.03;19.87;;;;;;;6.84;64.93;101915.27;1833041;78;20876;-78
2021/10/11 03:22:33;;;;;;;30.20;19.92;;;;;;;6.81;65.04;101915.34;1832852;77;20864;-78
2021/10/11 03:25:00;;;;;;;31.77;19.85;;;;;;;6.77;65.04;101908.94;1833370;78;20947;-78
2021/10/11 03:27:27;;;;;;;39.63;20.27;;;;;;;6.71;65.12;101907.77;1832946;77;20943;-78
2021/10/11 03:29:53;;;;;;;51.63;22.58;;;;;;;6.61;65.24;101903.23;1833320;78;21460;-78
2021/10/11 03:32:20;;;;;;;41.10;19.80;;;;;;;6.52;65.35;101904.29;1832901;77;21448;-78
2021/10/11 03:34:47;;;;;;;34.90;17.80;;;;;;;6.45;65.55;101902.72;1833348;77;20934;-78
2021/10/11 03:37:14;;;;;;;36.50;20.17;;;;;;;6.38;65.84;101907.63;1833071;77;21421;-78
2021/10/11 03:39:40;;;;;;;39.33;19.92;;;;;;;6.31;66.01;101902.14;1833914;78;20903;-76
2021/10/11 03:42:07;;;;;;;42.17;25.60;;;;;;;6.25;66.27;101895.75;1834061;78;21346;-77
2021/10/11 03:44:35;;;;;;;43.92;24.75;;;;;;;6.19;66.45;101899.37;1831641;77;20986;-77
2021/10/11 03:47:02;;;;;;;46.60;25.75;;;;;;;6.16;66.61;101896.84;1827149;78;20935;-77
2021/10/11 03:49:28;;;;;;;46.35;23.77;;;;;;;6.12;66.52;101891.27;1826962;78;20904;-78
2021/10/11 03:51:55;;;;;;;50.03;26.17;;;;;;;6.08;66.49;101894.83;1826870;78;20899;-77
2021/10/11 03:54:22;;;;;;;43.70;25.70;;;;;;;6.00;66.50;101892.36;1826973;78;21136;-77
2021/10/11 03:56:49;;;;;;;46.55;25.75;;;;;;;5.92;66.53;101894.25;1826909;78;20918;-78
2021/10/11 03:59:16;;;;;;;40.35;22.85;;;;;;;5.84;66.65;101889.63;1826820;78;20899;-78
2021/10/11 04:01:44;;;;;;;39.75;22.65;;;;;;;5.76;66.78;101888.05;1827200;78;20956;-79
2021/10/11 04:04:12;;;;;;;50.17;23.87;;;;;;;5.70;66.99;101888.61;1826715;77;20916;-79
2021/10/11 04:06:40;;;;;;;46.37;23.27;;;;;;;5.63;67.33;101889.17;1827000;78;21561;-81
2021/10/11 04:09:06;;;;;;;48.08;23.65;;;;;;;5.60;67.56;101884.89;1826713;78;21405;-81
2021/10/11 04:11:34;;;;;;;46.10;27.17;;;;;;;5.56;67.71;101890.18;1827160;78;21382;-80
2021/10/11 04:14:00;;;;;;;43.58;27.73;;;;;;;5.53;67.90;101879.81;1826794;77;20923;-80
2021/10/11 04:16:34;;;;;;;50.73;24.70;;;;;;;5.51;67.97;101884.18;1826803;78;21024;-78
2021/10/11 04:19:02;;;;;;;49.75;26.68;;;;;;;5.49;68.03;101880.33;1802036;78;21173;-81
2021/10/11 04:21:28;;;;;;;48.40;26.15;;;;;;;5.47;67.94;101879.91;1826526;77;20864;-83
2021/10/11 04:23:55;;;;;;;45.92;23.75;;;;;;;5.44;67.97;101873.03;1826808;78;20888;-75
2021/10/11 04:26:22;;;;;;;44.88;26.10;;;;;;;5.41;68.03;101877.00;1827077;77;20923;-75
2021/10/11 04:28:49;;;;;;;47.83;26.05;;;;;;;5.40;68.17;101876.56;1826849;78;21498;-76
2021/10/11 04:31:16;;;;;;;47.10;22.90;;;;;;;5.39;68.27;101873.56;1826849;78;21123;-75
2021/10/11 04:33:43;;;;;;;43.58;24.52;;;;;;;5.39;68.38;101882.22;1826756;78;20821;-75
2021/10/11 04:36:10;;;;;;;50.92;27.13;;;;;;;5.42;68.43;101872.20;1826670;78;20951;-76
2021/10/11 04:38:37;;;;;;;54.45;28.17;;;;;;;5.46;68.49;101870.41;1826727;77;20884;-75
2021/10/11 04:41:04;;;;;;;50.67;27.62;;;;;;;5.51;68.50;101871.17;1826835;78;20876;-75
2021/10/11 04:43:32;;;;;;;65.80;35.68;;;;;;;5.54;68.31;101869.38;1826901;77;22022;-75
2021/10/11 04:45:59;;;;;;;62.62;27.95;;;;;;;5.60;68.27;101866.67;1830884;78;20881;-76
2021/10/11 04:48:33;;;;;;;74.80;31.30;;;;;;;5.64;67.93;101863.55;1832843;78;20970;-74
2021/10/11 04:51:00;;;;;;;97.40;29.52;;;;;;;5.67;68.16;101857.00;1832826;77;20919;-75
2021/10/11 04:53:27;;;;;;;44.70;18.98;;;;;;;5.73;67.98;101863.36;1833001;78;20833;-74
2021/10/11 04:55:54;;;;;;;81.42;27.55;;;;;;;5.80;67.46;101862.80;1832746;77;21535;-74
2021/10/11 04:58:21;;;;;;;64.45;25.62;;;;;;;5.89;67.72;101870.86;1832901;78;20963;-74
2021/10/11 05:00:48;;;;;;;70.85;27.48;;;;;;;5.99;67.75;101868.08;1832849;78;20872;-76
2021/10/11 05:03:15;;;;;;;82.60;30.48;;;;;;;6.09;67.80;101865.28;1833204;78;21465;-75
2021/10/11 05:05:42;;;;;;;84.77;29.50;;;;;;;6.20;67.81;101860.69;1832730;78;20902;-75
2021/10/11 05:08:08;;;;;;;57.75;24.47;;;;;;;6.31;67.69;101860.46;1833246;78;21094;-77
2021/10/11 05:10:37;;;;;;;63.58;29.15;;;;;;;6.39;67.62;101862.46;1832879;78;21017;-75
2021/10/11 05:13:27;;;;;;;60.80;27.17;;;;;;;6.47;67.47;101858.36;1832683;77;21314;-75
2021/10/11 05:15:54;;;;;;;75.08;27.50;;;;;;;6.55;67.21;101857.75;1754800;77;20899;-74
2021/10/11 05:18:21;;;;;;;68.42;27.52;;;;;;;6.63;67.08;101856.68;1833479;78;21030;-74
2021/10/11 05:20:50;;;;;;;47.90;19.87;;;;;;;6.69;66.96;101856.97;1831854;78;21158;-76
2021/10/11 05:23:20;;;;;;;29.10;13.98;;;;;;;6.78;66.80;101854.16;1832980;77;20903;-75
2021/10/11 05:25:47;;;;;;;32.80;14.13;;;;;;;6.93;65.92;101843.78;1832413;78;20930;-75
2021/10/11 05:28:14;;;;;;;19.73;11.33;;;;;;;7.14;65.57;101842.39;1833216;77;21432;-75
2021/10/11 05:30:41;;;;;;;22.90;11.50;;;;;;;7.37;64.00;101836.55;1833321;77;20958;-75
2021/10/11 05:33:08;;;;;;;31.33;11.83;;;;;;;7.60;63.28;101837.67;1833484;78;21943;-75
2021/10/11 05:35:37;;;;;;;25.30;12.10;;;;;;;7.83;62.28;101844.42;1833223;78;20899;-75
2021/10/11 05:38:04;;;;;;;33.33;11.80;;;;;;;8.06;61.30;101841.58;1833627;78;20912;-74
2021/10/11 05:40:32;;;;;;;21.85;11.93;;;;;;;8.26;60.58;101839.20;1817537;78;20888;-75
2021/10/11 05:42:59;;;;;;;19.07;11.53;;;;;;;8.49;59.64;101842.47;1835085;77;20886;-74
2021/10/11 05:45:26;;;;;;;18.30;11.48;;;;;;;8.71;58.39;101840.02;1833358;77;21556;-75
2021/10/11 05:47:54;;;;;;;25.20;10.65;;;;;;;8.97;57.05;101842.67;1828947;78;20915;-77
2021/10/11 05:50:21;;;;;;;21.10;11.15;;;;;;;9.20;56.61;101844.03;1830462;78;20916;-74
2021/10/11 05:52:48;;;;;;;21.95;11.78;;;;;;;9.42;56.15;101845.45;1830399;78;20892;-73
2021/10/11 05:55:15;;;;;;;29.85;11.05;;;;;;;9.62;55.31;101849.12;1830687;78;20828;-75
2021/10/11 05:57:42;;;;;;;22.30;11.05;;;;;;;9.90;54.57;101847.20;1830572;77;21432;-75
2021/10/11 06:00:10;;;;;;;24.18;12.10;;;;;;;10.13;53.50;101848.94;1830691;77;20833;-75
2021/10/11 06:02:37;;;;;;;23.55;12.73;;;;;;;10.30;53.03;101852.73;1830276;77;20877;-75
2021/10/11 06:05:06;;;;;;;29.48;11.93;;;;;;;10.39;52.74;101847.59;1828041;77;21397;-73
2021/10/11 06:07:33;;;;;;;20.23;12.05;;;;;;;10.46;52.36;101849.05;1828644;77;20868;-77
2021/10/11 06:10:00;;;;;;;22.20;12.28;;;;;;;10.58;52.29;101848.53;1828806;78;21063;-78
2021/10/11 06:12:27;;;;;;;21.25;12.70;;;;;;;10.72;51.77;101847.53;1828155;78;20959;-77
2021/10/11 06:14:54;;;;;;;21.40;11.78;;;;;;;10.84;51.19;101852.73;1828069;78;20915;-75
2021/10/11 06:17:21;;;;;;;26.55;14.87;;;;;;;10.95;51.43;101841.79;1828259;78;20880;-77
2021/10/11 06:19:48;;;;;;;23.12;13.98;;;;;;;11.02;51.06;101844.55;1828344;78;20880;-77
2021/10/11 06:22:15;;;;;;;28.50;14.93;;;;;;;11.10;50.73;101844.23;1828458;78;21112;-77
2021/10/11 06:24:42;;;;;;;24.18;14.13;;;;;;;11.19;50.54;101842.06;1827700;78;20876;-77
2021/10/11 06:27:09;;;;;;;31.75;13.78;;;;;;;11.31;50.14;101846.39;1827316;78;21363;-78
2021/10/11 06:29:36;;;;;;;25.30;13.43;;;;;;;11.43;50.06;101843.23;1827157;78;20919;-78
2021/10/11 06:32:04;;;;;;;25.60;14.47;;;;;;;11.54;49.08;101841.45;1827353;78;20962;-77
2021/10/11 06:34:31;;;;;;;23.47;14.38;;;;;;;11.60;48.68;101834.16;1828041;78;21043;-77
2021/10/11 06:36:58;;;;;;;30.23;13.90;;;;;;;11.66;48.29;101832.16;1827817;78;20824;-79
2021/10/11 06:39:25;;;;;;;25.37;14.15;;;;;;;11.74;48.50;101828.73;1827334;78;20884;-77
2021/10/11 06:41:52;;;;;;;21.65;14.28;;;;;;;11.82;48.48;101831.84;1826989;78;20923;-79
2021/10/11 06:44:19;;;;;;;24.43;14.00;;;;;;;11.90;47.92;101827.61;1827341;77;20872;-78
2021/10/11 06:46:47;;;;;;;20.60;13.80;;;;;;;11.95;47.64;101824.30;1826780;78;21140;-79
2021/10/11 06:49:14;;;;;;;20.52;14.23;;;;;;;11.96;47.48;101820.28;1826822;78;20963;-78
2021/10/11 06:51:40;;;;;;;25.92;14.35;;;;;;;12.00;47.78;101826.23;1826961;78;20927;-79
2021/10/11 06:54:07;;;;;;;25.10;14.53;;;;;;;12.06;47.89;101823.80;1826792;78;20849;-80
2021/10/11 06:56:34;;;;;;;27.25;15.43;;;;;;;12.14;47.72;101815.94;1827132;77;20868;-79
2021/10/11 06:59:01;;;;;;;28.90;14.33;;;;;;;12.23;47.04;101815.50;1826988;78;21824;-79
2021/10/11 07:01:28;;;;;;;25.52;14.23;;;;;;;12.33;47.35;101821.16;1826854;78;20907;-79
2021/10/11 07:03:55;;;;;;;30.15;14.07;;;;;;;12.44;47.30;101812.28;1826870;77;21345;-78
2021/10/11 07:06:24;;;;;;;26.27;13.65;;;;;;;12.58;47.07;101810.75;1827073;77;20924;-78
2021/10/11 07:08:51;;;;;;;29.80;14.00;;;;;;;12.71;46.85;101803.95;1827225;78;20907;-78
2021/10/11 07:11:19;;;;;;;26.33;13.72;;;;;;;12.82;46.00;101802.10;1827116;78;21092;-77
2021/10/11 07:13:45;;;;;;;24.75;13.43;;;;;;;12.85;45.85;101796.70;1826726;78;20880;-77
2021/10/11 07:16:14;;;;;;;21.42;13.32;;;;;;;12.92;45.80;101792.82;1826992;78;20974;-78
2021/10/11 07:18:41;;;;;;;28.10;13.53;;;;;;;12.98;44.70;101793.83;1827386;77;21370;-81
2021/10/11 07:21:08;;;;;;;25.75;12.78;;;;;;;12.99;44.86;101792.05;1827524;78;20900;-82
2021/10/11 07:23:36;;;;;;;27.62;13.58;;;;;;;13.02;44.97;101788.77;1826824;78;21158;-82
2021/10/11 07:26:05;;;;;;;28.17;13.20;;;;;;;13.10;44.65;101786.23;1827102;77;20931;-80
2021/10/11 07:28:32;;;;;;;22.05;11.80;;;;;;;13.27;44.70;101790.13;1826864;78;21525;-85
2021/10/11 07:30:59;;;;;;;28.90;12.55;;;;;;;13.27;44.70;101790.13;1827155;77;20880;-85
2021/10/11 07:33:26;;;;;;;31.30;13.20;;;;;;;13.34;44.26;101783.66;1827101;78;21365;-85
2021/10/11 07:35:53;;;;;;;36.88;14.75;;;;;;;13.40;44.44;101783.30;1827186;77;21144;-84
2021/10/11 07:38:20;;;;;;;29.82;13.70;;;;;;;13.45;44.53;101779.98;1826652;78;20982;-81
2021/10/11 07:40:51;;;;;;;19.42;12.63;;;;;;;13.53;44.69;101777.39;1827083;78;20864;-81
2021/10/11 07:43:18;;;;;;;25.60;12.37;;;;;;;13.65;43.42;101771.44;1826842;78;20825;-83
2021/10/11 07:45:44;;;;;;;24.37;12.43;;;;;;;13.65;43.42;101771.44;1827020;76;20860;-78
2021/10/11 07:48:11;;;;;;;26.93;12.30;;;;;;;13.65;43.57;101776.27;1826878;78;21786;-78
2021/10/11 07:50:38;;;;;;;25.27;12.43;;;;;;;13.66;43.83;101770.05;1827093;78;20998;-78
2021/10/11 07:53:05;;;;;;;29.75;12.85;;;;;;;13.73;43.48;101767.93;1826876;78;20864;-78
2021/10/11 07:55:32;;;;;;;28.10;13.15;;;;;;;13.73;43.48;101767.93;1826763;78;20990;-79
2021/10/11 07:57:59;;;;;;;33.13;12.10;;;;;;;13.75;44.03;101771.34;1826925;77;20860;-79
2021/10/11 08:00:27;;;;;;;24.40;13.03;;;;;;;13.74;42.49;101769.65;1827002;77;21089;-79
2021/10/11 08:02:53;;;;;;;33.42;12.65;;;;;;;13.74;42.49;101769.65;1826818;78;20868;-80
2021/10/11 08:05:22;;;;;;;23.75;12.53;;;;;;;13.68;42.67;101768.19;1826917;77;20915;-80
2021/10/11 08:07:49;;;;;;;30.77;14.18;;;;;;;13.62;43.21;101769.83;1827232;77;20915;-79
2021/10/11 08:10:16;;;;;;;23.35;12.00;;;;;;;13.60;44.06;101757.67;1826860;78;21362;-81
2021/10/11 08:12:43;;;;;;;30.95;12.23;;;;;;;13.60;44.06;101757.67;1826918;77;21138;-84
2021/10/11 08:15:10;;;;;;;28.95;11.95;;;;;;;13.65;44.35;101764.41;1826778;78;21653;-83
2021/10/11 08:17:38;;;;;;;33.70;13.58;;;;;;;13.72;44.39;101761.41;1826986;78;20860;-77
2021/10/11 08:20:07;;;;;;;38.08;14.38;;;;;;;13.77;44.25;101752.80;1826753;78;21410;-76
2021/10/11 08:22:34;;;;;;;34.83;12.18;;;;;;;13.85;43.64;101763.75;1826827;77;21575;-76
2021/10/11 08:25:01;;;;;;;25.35;12.20;;;;;;;13.93;43.77;101765.51;1826852;78;21108;-77
2021/10/11 08:27:28;;;;;;;28.92;12.58;;;;;;;14.00;43.94;101758.95;1826679;78;20844;-75
2021/10/11 08:29:55;;;;;;;36.00;13.40;;;;;;;14.09;43.90;101758.45;1826780;78;20903;-76
2021/10/11 08:32:25;;;;;;;26.73;13.28;;;;;;;14.19;43.36;101760.09;1826992;77;21385;-78
2021/10/11 08:34:52;;;;;;;37.00;12.78;;;;;;;14.22;43.15;101755.95;1826794;77;21396;-79
2021/10/11 08:37:21;;;;;;;27.98;12.80;;;;;;;14.27;42.95;101764.47;1826822;78;21579;-77
2021/10/11 08:39:49;;;;;;;31.17;12.63;;;;;;;14.28;42.69;101753.44;1826763;77;20856;-76
2021/10/11 08:42:16;;;;;;;25.27;12.47;;;;;;;14.26;42.41;101754.84;1827020;77;21325;-77
2021/10/11 08:44:43;;;;;;;36.58;14.25;;;;;;;14.26;42.41;101754.84;1826836;78;20918;-78
2021/10/11 08:47:12;;;;;;;23.20;12.18;;;;;;;14.21;42.72;101752.94;1826680;77;21572;-77
2021/10/11 08:49:44;;;;;;;35.65;14.03;;;;;;;14.16;42.56;101748.85;1826737;77;21124;-78
2021/10/11 08:52:11;;;;;;;34.00;14.10;;;;;;;14.12;42.93;101741.60;1826891;78;21002;-77
2021/10/11 08:54:38;;;;;;;25.90;13.43;;;;;;;14.07;42.86;101735.27;1826808;77;20907;-77
2021/10/11 08:57:06;;;;;;;24.35;12.33;;;;;;;14.02;43.19;101733.81;1826731;78;20896;-77
2021/10/11 08:59:34;;;;;;;23.92;12.90;;;;;;;13.98;43.12;101737.08;1826904;78;20970;-79
2021/10/11 09:02:03;;;;;;;24.23;12.98;;;;;;;13.94;43.21;101732.95;1826806;78;21979;-79
2021/10/11 09:04:32;;;;;;;26.27;12.75;;;;;;;13.94;43.23;101728.98;1826592;78;20888;-76
2021/10/11 09:07:06;;;;;;;24.65;11.68;;;;;;;13.95;43.03;101729.83;1826856;78;20923;-77
2021/10/11 09:09:35;;;;;;;24.47;12.03;;;;;;;13.96;43.28;101725.80;1827436;78;21476;-78
2021/10/11 09:12:03;;;;;;;29.02;12.18;;;;;;;14.01;43.44;101719.79;1826781;78;20955;-76
2021/10/11 09:14:30;;;;;;;28.05;14.03;;;;;;;14.07;43.65;101727.36;1827384;77;21092;-77
2021/10/11 09:17:01;;;;;;;23.38;12.70;;;;;;;14.20;42.89;101712.97;1827112;78;20907;-79
2021/10/11 09:19:39;;;;;;;25.65;12.25;;;;;;;14.20;42.89;101712.97;1827085;77;20828;-77
2021/10/11 09:22:05;;;;;;;25.77;12.47;;;;;;;14.38;42.59;101707.56;1827256;77;21806;-78
2021/10/11 09:24:33;;;;;;;16.27;11.43;;;;;;;14.48;42.61;101699.02;1826958;77;20986;-76
2021/10/11 09:27:00;;;;;;;24.92;12.00;;;;;;;14.48;42.61;101699.02;1827142;78;21128;-76
2021/10/11 09:29:39;;;;;;;25.90;12.40;;;;;;;14.65;42.52;101702.47;1827200;78;20919;-78
2021/10/11 09:32:08;;;;;;;33.38;14.50;;;;;;;14.83;42.82;101698.75;1826878;77;20911;-77
2021/10/11 09:34:40;;;;;;;32.55;12.30;;;;;;;15.11;42.04;101691.76;1827188;78;20896;-78
2021/10/11 09:37:15;;;;;;;32.83;12.90;;;;;;;15.16;41.71;101688.34;1826871;78;20887;-77
2021/10/11 09:39:43;;;;;;;23.92;11.80;;;;;;;15.16;41.71;101688.34;1826862;78;21531;-78
2021/10/11 09:42:16;;;;;;;24.23;12.60;;;;;;;15.21;41.48;101683.65;1826957;78;20864;-76
2021/10/11 09:44:55;;;;;;;25.27;13.88;;;;;;;15.27;41.63;101679.31;1827475;78;20939;-77
2021/10/11 09:50:00;;;;;;;21.20;12.70;;;;;;;15.47;41.72;101675.41;1832976;76;20863;-77
2021/10/11 09:52:27;;;;;;;22.20;11.45;;;;;;;15.58;40.94;101660.14;1833497;78;21123;-75
2021/10/11 09:54:53;;;;;;;22.48;11.25;;;;;;;15.71;40.68;101658.92;1833061;77;20919;-76
2021/10/11 09:57:20;;;;;;;19.42;10.32;;;;;;;15.85;40.72;101651.40;1832944;77;20939;-77
2021/10/11 09:59:48;;;;;;;16.65;10.43;;;;;;;15.97;39.88;101652.41;1833044;78;20844;-78
2021/10/11 10:02:17;;;;;;;24.67;11.18;;;;;;;16.02;39.61;101657.75;1833412;78;21445;-79
2021/10/11 10:04:43;;;;;;;16.55;10.65;;;;;;;16.07;39.74;101642.89;1833175;78;21140;-79
2021/10/11 10:07:12;;;;;;;22.90;10.68;;;;;;;16.12;39.30;101640.33;1832964;78;20947;-78
2021/10/11 10:09:45;;;;;;;16.37;11.68;;;;;;;16.16;38.97;101639.17;1833266;77;20836;-79
2021/10/11 10:12:14;;;;;;;22.17;11.28;;;;;;;16.22;38.94;101629.11;1833011;77;20950;-79
2021/10/11 10:14:41;;;;;;;19.57;10.85;;;;;;;16.28;39.06;101634.00;1833177;78;20974;-78
2021/10/11 10:17:08;;;;;;;16.75;9.33;;;;;;;16.33;38.69;101631.88;1833211;77;21117;-79
2021/10/11 10:19:39;;;;;;;20.30;10.80;;;;;;;16.42;38.18;101626.43;1833315;76;20955;-79
2021/10/11 10:22:13;;;;;;;18.35;10.55;;;;;;;16.42;38.18;101626.43;1833104;78;20899;-78
2021/10/11 10:24:40;;;;;;;20.17;9.58;;;;;;;16.77;37.79;101627.48;1833236;77;20959;-81
2021/10/11 10:27:10;;;;;;;20.50;10.63;;;;;;;17.22;37.00;101615.56;1833337;78;20918;-78
2021/10/11 10:29:48;;;;;;;17.57;9.85;;;;;;;17.61;36.34;101610.48;1833021;77;20847;-78
2021/10/11 10:32:17;;;;;;;19.98;10.32;;;;;;;17.97;35.69;101607.40;1832943;77;20892;-77
2021/10/11 10:34:59;;;;;;;32.13;10.85;;;;;;;18.30;35.33;101603.14;1832988;78;21357;-77
2021/10/11 10:37:36;;;;;;;17.90;8.90;;;;;;;18.71;34.51;101599.89;1833021;77;20965;-77
2021/10/11 10:40:15;;;;;;;21.50;10.80;;;;;;;19.26;33.82;101599.50;1833274;77;20978;-79
2021/10/11 10:42:42;;;;;;;16.57;9.73;;;;;;;19.87;33.03;101590.11;1833209;78;21397;-79
2021/10/11 10:45:21;;;;;;;14.03;8.70;;;;;;;20.47;31.82;101590.34;1832752;77;20876;-75
2021/10/11 10:47:49;;;;;;;14.65;8.73;;;;;;;20.93;31.47;101577.52;1828906;77;21397;-79
2021/10/11 10:50:23;;;;;;;11.60;8.25;;;;;;;21.37;31.45;101576.19;1826869;78;20935;-78
2021/10/11 10:52:53;;;;;;;16.48;7.42;;;;;;;21.79;30.43;101569.27;1827331;77;21357;-80
2021/10/11 10:55:21;;;;;;;18.62;6.85;;;;;;;22.16;29.69;101576.50;1827201;78;21645;-79
2021/10/11 10:57:47;;;;;;;10.55;6.97;;;;;;;22.39;29.15;101565.48;1826817;77;20894;-78
2021/10/11 11:00:17;;;;;;;10.03;6.40;;;;;;;22.36;28.83;101569.30;1827205;78;20908;-80
2021/10/11 11:02:50;;;;;;;10.28;6.05;;;;;;;22.29;29.04;101564.20;1826859;77;20940;-79
2021/10/11 11:05:21;;;;;;;11.95;6.55;;;;;;;22.15;28.94;101559.63;1826591;78;20907;-79
2021/10/11 11:07:52;;;;;;;10.82;6.40;;;;;;;21.90;28.84;101559.77;1827057;78;21129;-79
2021/10/11 11:10:22;;;;;;;10.48;5.53;;;;;;;21.69;29.25;101566.59;1827069;78;20868;-80
2021/10/11 11:13:01;;;;;;;11.60;6.37;;;;;;;21.48;29.50;101553.90;1826831;78;20907;-79
2021/10/11 11:15:33;;;;;;;13.88;6.45;;;;;;;21.28;29.87;101561.02;1827020;78;20880;-79
2021/10/11 11:18:07;;;;;;;12.78;6.95;;;;;;;21.04;29.91;101562.23;1826899;78;21479;-78
2021/10/11 11:20:38;;;;;;;9.25;5.85;;;;;;;20.77;30.34;101552.20;1827190;78;21120;-78
2021/10/11 11:23:07;;;;;;;11.97;6.28;;;;;;;20.45;30.60;101555.86;1826904;78;20911;-80